createdAt,value
2023-02-11T00:01:32.224Z,2.77
2023-02-11T00:04:05.556Z,3.14
2023-02-11T00:06:37.229Z,3.41
2023-02-11T00:09:10.436Z,3.10
2023-02-11T00:11:42.051Z,3.27
2023-02-11T00:14:13.688Z,3.56
2023-02-11T00:16:45.326Z,3.61
2023-02-11T00:19:16.929Z,3.27
2023-02-11T00:21:48.535Z,3.22
2023-02-11T00:24:20.155Z,3.48
2023-02-11T00:26:51.868Z,3.54
2023-02-11T00:29:23.686Z,3.46
2023-02-11T00:31:55.365Z,3.43
2023-02-11T00:34:28.931Z,3.58
2023-02-11T00:37:00.525Z,3.19
2023-02-11T00:39:32.588Z,3.36
2023-02-11T00:42:04.359Z,3.07
2023-02-11T00:44:35.988Z,3.44
2023-02-11T00:47:07.567Z,3.26
2023-02-11T00:49:39.300Z,3.26
2023-02-11T00:52:10.942Z,3.06
2023-02-11T00:54:42.600Z,3.05
2023-02-11T00:57:14.294Z,2.98
2023-02-11T00:59:45.967Z,2.64
2023-02-11T01:02:17.612Z,2.51
2023-02-11T01:04:49.267Z,2.31
2023-02-11T01:07:21.060Z,2.57
2023-02-11T01:09:53.473Z,2.08
2023-02-11T01:12:25.683Z,2.22
2023-02-11T01:14:57.291Z,2.29
2023-02-11T01:17:28.983Z,2.32
2023-02-11T01:20:07.385Z,2.70
2023-02-11T01:22:39.080Z,2.51
2023-02-11T01:25:10.812Z,2.37
2023-02-11T01:27:42.828Z,2.50
2023-02-11T01:30:14.835Z,2.71
2023-02-11T01:32:46.471Z,2.72
2023-02-11T01:35:18.153Z,2.66
2023-02-11T01:37:49.717Z,2.88
2023-02-11T01:40:22.857Z,2.67
2023-02-11T01:42:54.528Z,3.08
2023-02-11T01:45:44.533Z,2.88
2023-02-11T01:48:32.437Z,2.60
2023-02-11T01:51:16.780Z,2.59
2023-02-11T01:53:50.981Z,2.80
2023-02-11T01:56:26.121Z,2.63
2023-02-11T01:59:06.240Z,2.68
2023-02-11T02:01:44.887Z,2.82
2023-02-11T02:04:19.262Z,2.98
2023-02-11T02:06:57.980Z,2.97
2023-02-11T02:09:39.510Z,3.37
2023-02-11T02:12:11.214Z,2.88
2023-02-11T02:14:43.110Z,2.79
2023-02-11T02:17:36.961Z,2.46
2023-02-11T02:20:34.679Z,2.10
2023-02-11T02:23:27.750Z,1.67
2023-02-11T02:26:37.885Z,1.95
2023-02-11T02:29:46.652Z,1.70
2023-02-11T02:32:39.685Z,1.99
2023-02-11T02:35:39.077Z,2.48
2023-02-11T02:38:20.701Z,2.62
2023-02-11T02:40:56.609Z,2.86
2023-02-11T02:43:30.623Z,2.93
2023-02-11T02:46:25.121Z,2.78
2023-02-11T02:48:58.514Z,2.36
2023-02-11T02:51:58.253Z,2.45
2023-02-11T02:55:05.796Z,2.55
2023-02-11T02:57:58.612Z,2.47
2023-02-11T03:00:38.558Z,2.24
2023-02-11T03:03:29.276Z,2.20
2023-02-11T03:06:50.325Z,2.62
2023-02-11T03:09:40.213Z,2.77
2023-02-11T03:12:14.515Z,2.92
2023-02-11T03:14:52.292Z,3.09
2023-02-11T03:17:28.246Z,2.67
2023-02-11T03:20:02.259Z,2.66
2023-02-11T03:22:59.783Z,3.05
2023-02-11T03:25:48.755Z,3.25
2023-02-11T03:28:49.506Z,2.56
2023-02-11T03:32:04.250Z,2.86
2023-02-11T03:35:03.798Z,3.01
2023-02-11T03:37:43.718Z,2.89
2023-02-11T03:40:26.892Z,2.76
2023-02-11T03:43:09.714Z,3.01
2023-02-11T03:45:41.711Z,2.99
2023-02-11T03:48:40.694Z,2.46
2023-02-11T03:51:16.125Z,2.53
2023-02-11T03:53:52.596Z,2.52
2023-02-11T03:56:30.040Z,2.41
2023-02-11T03:59:01.766Z,2.69
2023-02-11T04:01:33.752Z,2.83
2023-02-11T04:04:06.520Z,2.15
2023-02-11T04:06:38.360Z,2.16
2023-02-11T04:09:11.424Z,2.42
2023-02-11T04:11:43.103Z,2.65
2023-02-11T04:14:14.757Z,2.59
2023-02-11T04:16:46.405Z,2.50
2023-02-11T04:19:18.004Z,2.78
2023-02-11T04:21:49.546Z,2.31
2023-02-11T04:24:21.139Z,2.51
2023-02-11T04:26:52.740Z,2.32
2023-02-11T04:29:24.548Z,2.84
2023-02-11T04:31:56.254Z,2.69
2023-02-11T04:34:28.091Z,2.94
2023-02-11T04:36:59.696Z,2.51
2023-02-11T04:39:31.326Z,2.32
2023-02-11T04:42:03.039Z,2.45
2023-02-11T04:44:34.638Z,2.45
2023-02-11T04:47:06.262Z,2.31
2023-02-11T04:49:37.866Z,1.83
2023-02-11T04:52:09.534Z,1.34
2023-02-11T04:54:41.168Z,1.00
2023-02-11T04:57:12.847Z,1.74
2023-02-11T04:59:44.722Z,1.92
2023-02-11T05:02:16.424Z,1.89
2023-02-11T05:04:48.062Z,2.17
2023-02-11T05:07:19.685Z,2.10
2023-02-11T05:09:51.255Z,2.01
2023-02-11T05:12:22.988Z,1.65
2023-02-11T05:14:54.583Z,1.57
2023-02-11T05:17:26.244Z,1.69
2023-02-11T05:19:57.859Z,2.05
2023-02-11T05:22:29.415Z,2.14
2023-02-11T05:25:01.015Z,1.82
2023-02-11T05:27:32.710Z,1.62
2023-02-11T05:30:06.152Z,1.90
2023-02-11T05:32:37.707Z,1.80
2023-02-11T05:35:09.333Z,1.54
2023-02-11T05:37:40.977Z,1.31
2023-02-11T05:40:12.702Z,1.52
2023-02-11T05:42:44.456Z,1.69
2023-02-11T05:45:16.273Z,1.33
2023-02-11T05:47:47.859Z,1.39
2023-02-11T05:50:19.641Z,1.32
2023-02-11T05:52:51.835Z,1.23
2023-02-11T05:55:23.611Z,1.57
2023-02-11T05:57:55.191Z,1.94
2023-02-11T06:00:27.470Z,2.13
2023-02-11T06:02:59.324Z,2.13
2023-02-11T06:05:33.330Z,2.29
2023-02-11T06:08:05.113Z,2.40
2023-02-11T06:10:36.849Z,2.35
2023-02-11T06:13:08.774Z,2.23
2023-02-11T06:15:40.415Z,2.75
2023-02-11T06:18:12.118Z,2.78
2023-02-11T06:20:43.715Z,2.34
2023-02-11T06:23:15.364Z,2.18
2023-02-11T06:25:46.945Z,2.37
2023-02-11T06:28:18.963Z,2.12
2023-02-11T06:30:50.591Z,2.17
2023-02-11T06:33:22.439Z,2.35
2023-02-11T06:35:53.966Z,1.96
2023-02-11T06:38:25.611Z,1.77
2023-02-11T06:40:57.348Z,1.53
2023-02-11T06:43:28.925Z,1.05
2023-02-11T06:46:00.553Z,1.18
2023-02-11T06:48:32.277Z,1.14
2023-02-11T06:51:06.554Z,1.50
2023-02-11T06:53:41.820Z,1.71
2023-02-11T06:56:19.622Z,1.37
2023-02-11T06:58:55.375Z,1.46
2023-02-11T07:01:27.718Z,1.39
2023-02-11T07:03:59.489Z,1.64
2023-02-11T07:06:31.085Z,1.68
2023-02-11T07:09:03.864Z,1.97
2023-02-11T07:11:35.713Z,1.76
2023-02-11T07:14:08.217Z,1.58
2023-02-11T07:16:39.922Z,1.78
2023-02-11T07:19:12.073Z,1.75
2023-02-11T07:21:43.794Z,1.56
2023-02-11T07:24:15.579Z,1.53
2023-02-11T07:26:47.162Z,2.03
2023-02-11T07:29:18.767Z,3.16
2023-02-11T07:31:50.471Z,3.51
2023-02-11T07:34:22.203Z,3.62
2023-02-11T07:36:53.828Z,3.99
2023-02-11T07:39:25.910Z,3.67
2023-02-11T07:41:58.593Z,3.78
2023-02-11T07:44:31.061Z,3.84
2023-02-11T07:47:03.324Z,4.86
2023-02-11T07:49:34.929Z,5.52
2023-02-11T07:52:06.531Z,6.44
2023-02-11T07:54:38.141Z,8.58
2023-02-11T07:57:09.738Z,9.53
2023-02-11T07:59:41.282Z,10.24
2023-02-11T08:02:13.008Z,10.84
2023-02-11T08:04:46.370Z,11.66
2023-02-11T08:07:18.474Z,12.09
2023-02-11T08:09:50.077Z,12.47
2023-02-11T08:12:21.715Z,14.16
2023-02-11T08:14:53.378Z,14.09
2023-02-11T08:17:25.011Z,15.62
2023-02-11T08:19:56.636Z,15.42
2023-02-11T08:22:30.886Z,16.12
2023-02-11T08:25:02.497Z,16.92
2023-02-11T08:27:34.131Z,17.67
2023-02-11T08:30:06.279Z,17.17
2023-02-11T08:32:37.815Z,18.14
2023-02-11T08:35:09.649Z,16.71
2023-02-11T08:37:41.223Z,16.91
2023-02-11T08:40:12.819Z,16.65
2023-02-11T08:42:44.536Z,16.03
2023-02-11T08:45:16.185Z,15.85
2023-02-11T08:47:47.848Z,16.79
2023-02-11T08:50:19.584Z,16.98
2023-02-11T08:52:51.154Z,17.04
2023-02-11T08:55:22.789Z,16.68
2023-02-11T08:57:54.339Z,17.60
2023-02-11T09:00:26.084Z,17.49
2023-02-11T09:02:57.763Z,17.54
2023-02-11T09:05:29.353Z,16.17
2023-02-11T09:08:00.909Z,18.17
2023-02-11T09:10:33.177Z,19.68
2023-02-11T09:13:05.190Z,19.98
2023-02-11T09:15:37.220Z,19.09
2023-02-11T09:18:08.931Z,17.62
2023-02-11T09:20:40.583Z,18.43
2023-02-11T09:23:12.197Z,18.31
2023-02-11T09:25:43.996Z,18.19
2023-02-11T09:28:15.628Z,17.09
2023-02-11T09:30:47.342Z,16.91
2023-02-11T09:33:18.969Z,18.61
2023-02-11T09:35:50.569Z,19.78
2023-02-11T09:38:22.191Z,20.88
2023-02-11T09:40:54.019Z,19.68
2023-02-11T09:43:47.141Z,21.40
2023-02-11T09:46:21.237Z,20.33
2023-02-11T09:48:56.186Z,19.61
2023-02-11T09:51:36.808Z,19.52
2023-02-11T09:54:28.728Z,20.12
2023-02-11T09:57:00.441Z,21.65
2023-02-11T09:59:32.122Z,21.92
2023-02-11T10:02:18.482Z,20.36
2023-02-11T10:05:30.502Z,22.62
2023-02-11T10:08:37.222Z,22.70
2023-02-11T10:11:31.297Z,22.58
2023-02-11T10:14:29.665Z,21.86
2023-02-11T10:17:16.542Z,21.88
2023-02-11T10:20:03.092Z,22.69
2023-02-11T10:22:45.316Z,21.96
2023-02-11T10:25:27.842Z,22.43
2023-02-11T10:28:02.385Z,24.23
2023-02-11T10:30:52.916Z,24.97
2023-02-11T10:33:31.040Z,22.83
2023-02-11T10:36:04.264Z,25.97
2023-02-11T10:38:36.713Z,24.57
2023-02-11T10:41:17.581Z,24.45
2023-02-11T10:43:50.981Z,25.17
2023-02-11T10:46:33.023Z,25.25
2023-02-11T10:49:04.743Z,26.54
2023-02-11T10:51:36.386Z,25.91
2023-02-11T10:54:07.957Z,25.97
2023-02-11T10:56:50.343Z,24.50
2023-02-11T10:59:30.479Z,25.14
2023-02-11T11:02:23.766Z,23.04
2023-02-11T11:05:02.923Z,22.52
2023-02-11T11:07:36.330Z,22.33
2023-02-11T11:10:39.674Z,21.76
2023-02-11T11:13:38.775Z,21.35
2023-02-11T11:16:13.456Z,18.40
2023-02-11T11:18:48.945Z,17.86
2023-02-11T11:21:30.286Z,18.62
2023-02-11T11:24:04.126Z,19.53
2023-02-11T11:26:40.816Z,19.35
2023-02-11T11:29:26.718Z,18.96
2023-02-11T11:32:02.570Z,19.04
2023-02-11T11:34:39.848Z,19.19
2023-02-11T11:37:23.768Z,18.29
2023-02-11T11:40:10.706Z,16.79
2023-02-11T11:42:43.267Z,18.20
2023-02-11T11:45:17.932Z,17.64
2023-02-11T11:48:24.532Z,17.94
2023-02-11T11:51:05.849Z,19.35
2023-02-11T11:54:12.893Z,18.33
2023-02-11T11:56:59.943Z,16.64
2023-02-11T11:59:32.163Z,18.28
2023-02-11T12:02:25.485Z,17.57
2023-02-11T12:05:09.428Z,17.30
2023-02-11T12:07:59.022Z,20.41
2023-02-11T12:11:05.242Z,20.59
2023-02-11T12:14:23.314Z,22.35
2023-02-11T12:17:22.847Z,21.02
2023-02-11T12:20:19.059Z,21.62
2023-02-11T12:22:50.593Z,18.51
2023-02-11T12:25:28.479Z,19.79
2023-02-11T12:28:18.035Z,18.74
2023-02-11T12:30:57.213Z,17.32
2023-02-11T12:33:51.614Z,20.98
2023-02-11T12:36:50.503Z,19.21
2023-02-11T12:39:27.972Z,18.41
2023-02-11T12:42:23.052Z,17.30
2023-02-11T12:45:12.747Z,20.47
2023-02-11T12:48:12.966Z,21.41
2023-02-11T12:51:01.212Z,19.20
2023-02-11T12:53:48.818Z,18.08
2023-02-11T12:56:36.336Z,17.51
2023-02-11T12:59:46.896Z,19.43
2023-02-11T13:02:28.921Z,17.42
2023-02-11T13:05:17.498Z,19.96
2023-02-11T13:07:53.410Z,18.51
2023-02-11T13:10:35.263Z,18.31
2023-02-11T13:13:36.065Z,17.29
2023-02-11T13:16:30.224Z,16.31
2023-02-11T13:19:27.947Z,16.43
2023-02-11T13:22:19.982Z,19.26
2023-02-11T13:24:58.774Z,17.74
2023-02-11T13:27:45.553Z,18.51
2023-02-11T13:30:34.330Z,18.79
2023-02-11T13:33:17.112Z,18.99
2023-02-11T13:36:08.605Z,18.85
2023-02-11T13:38:40.512Z,18.66
2023-02-11T13:41:26.943Z,18.39
2023-02-11T13:44:24.617Z,19.95
2023-02-11T13:46:58.387Z,20.66
2023-02-11T13:49:32.656Z,17.67
2023-02-11T13:52:16.386Z,16.86
2023-02-11T13:54:52.388Z,17.78
2023-02-11T13:57:29.332Z,18.78
2023-02-11T14:00:25.109Z,19.07
2023-02-11T14:03:12.058Z,17.74
2023-02-11T14:06:11.690Z,18.86
2023-02-11T14:09:14.344Z,19.94
2023-02-11T14:11:47.848Z,19.08
2023-02-11T14:14:25.546Z,18.09
2023-02-11T14:16:59.983Z,19.63
2023-02-11T14:19:41.024Z,18.04
2023-02-11T14:22:15.341Z,16.89
2023-02-11T14:24:52.605Z,18.03
2023-02-11T14:27:44.717Z,18.76
2023-02-11T14:30:55.937Z,18.40
2023-02-11T14:33:36.517Z,17.01
2023-02-11T14:36:37.122Z,18.64
2023-02-11T14:39:32.523Z,20.37
2023-02-11T14:42:04.789Z,20.23
2023-02-11T14:44:36.625Z,20.41
2023-02-11T14:47:20.921Z,21.80
2023-02-11T14:49:54.170Z,21.97
2023-02-11T14:52:27.503Z,21.28
2023-02-11T14:55:06.211Z,21.48
2023-02-11T14:57:37.837Z,20.48
2023-02-11T15:00:21.283Z,17.37
2023-02-11T15:02:52.995Z,18.07
2023-02-11T15:05:27.424Z,17.43
2023-02-11T15:08:04.465Z,17.30
2023-02-11T15:10:43.037Z,14.02
2023-02-11T15:13:20.991Z,13.82
2023-02-11T15:16:00.661Z,14.70
2023-02-11T15:18:56.344Z,13.83
2023-02-11T15:21:32.566Z,13.70
2023-02-11T15:24:25.164Z,13.14
2023-02-11T15:27:01.421Z,11.85
2023-02-11T15:29:44.015Z,11.14
2023-02-11T15:32:18.638Z,10.23
2023-02-11T15:34:53.709Z,10.37
2023-02-11T15:37:30.553Z,10.31
2023-02-11T15:40:20.872Z,10.45
2023-02-11T15:43:04.466Z,10.28
2023-02-11T15:45:43.823Z,10.39
2023-02-11T15:48:37.558Z,10.06
2023-02-11T15:51:27.049Z,9.91
2023-02-11T15:54:02.581Z,9.27
2023-02-11T15:56:40.926Z,9.24
2023-02-11T15:59:20.683Z,9.24
2023-02-11T16:01:54.910Z,8.97
2023-02-11T16:04:28.011Z,9.73
2023-02-11T16:06:59.646Z,9.25
2023-02-11T16:09:35.235Z,9.12
2023-02-11T16:12:25.211Z,9.30
2023-02-11T16:14:56.926Z,9.56
2023-02-11T16:17:29.716Z,9.77
2023-02-11T16:20:01.398Z,9.08
2023-02-11T16:22:33.263Z,8.89
2023-02-11T16:25:05.215Z,8.93
2023-02-11T16:27:41.401Z,8.63
2023-02-11T16:30:33.298Z,9.13
2023-02-11T16:33:05.113Z,9.37
2023-02-11T16:35:36.730Z,9.35
2023-02-11T16:38:08.294Z,9.30
2023-02-11T16:40:39.964Z,9.35
2023-02-11T16:43:12.252Z,9.09
2023-02-11T16:45:43.890Z,9.08
2023-02-11T16:48:18.318Z,9.02
2023-02-11T16:50:53.400Z,8.84
2023-02-11T16:53:25.365Z,8.65
2023-02-11T16:55:56.946Z,8.50
2023-02-11T16:58:28.584Z,8.13
2023-02-11T17:01:00.724Z,8.14
2023-02-11T17:03:32.797Z,7.90
2023-02-11T17:06:04.926Z,7.98
2023-02-11T17:08:36.562Z,7.88
2023-02-11T17:11:08.185Z,7.72
2023-02-11T17:13:39.877Z,7.49
2023-02-11T17:16:19.386Z,7.55
2023-02-11T17:18:51.079Z,7.47
2023-02-11T17:21:22.665Z,6.87
2023-02-11T17:23:54.321Z,7.24
2023-02-11T17:26:26.136Z,7.10
2023-02-11T17:28:57.725Z,7.15
2023-02-11T17:31:29.404Z,6.88
2023-02-11T17:34:01.260Z,6.51
2023-02-11T17:36:33.089Z,6.55
2023-02-11T17:39:08.108Z,6.39
2023-02-11T17:41:40.750Z,6.70
2023-02-11T17:44:12.613Z,6.68
2023-02-11T17:46:44.254Z,6.78
2023-02-11T17:49:15.855Z,6.32
2023-02-11T17:51:47.540Z,6.08
2023-02-11T17:54:19.562Z,6.29
2023-02-11T17:56:51.349Z,6.09
2023-02-11T17:59:23.018Z,5.99
2023-02-11T18:01:54.556Z,5.81
2023-02-11T18:04:26.255Z,6.07
2023-02-11T18:06:58.142Z,5.95
2023-02-11T18:09:29.759Z,6.07
2023-02-11T18:12:01.595Z,6.07
2023-02-11T18:14:33.897Z,6.03
2023-02-11T18:17:05.535Z,6.19
2023-02-11T18:19:37.115Z,6.19
2023-02-11T18:22:08.736Z,6.12
2023-02-11T18:24:41.495Z,6.08
2023-02-11T18:27:13.411Z,5.92
2023-02-11T18:29:45.361Z,6.05
2023-02-11T18:32:17.042Z,6.13
2023-02-11T18:34:48.613Z,6.12
2023-02-11T18:37:20.199Z,5.98
2023-02-11T18:39:51.872Z,5.73
2023-02-11T18:42:23.522Z,5.92
2023-02-11T18:44:55.130Z,5.96
2023-02-11T18:47:26.729Z,6.03
2023-02-11T18:49:58.275Z,6.12
2023-02-11T18:52:29.866Z,5.84
2023-02-11T18:55:01.468Z,5.90
2023-02-11T18:57:33.296Z,5.95
2023-02-11T19:00:07.885Z,5.90
2023-02-11T19:02:39.532Z,5.96
2023-02-11T19:05:11.565Z,5.99
2023-02-11T19:07:43.166Z,6.04
2023-02-11T19:10:14.806Z,5.94
2023-02-11T19:12:46.434Z,5.93
2023-02-11T19:15:18.185Z,5.93
2023-02-11T19:17:49.850Z,6.06
2023-02-11T19:20:21.499Z,6.06
2023-02-11T19:22:53.114Z,5.97
2023-02-11T19:25:24.665Z,6.04
2023-02-11T19:27:56.293Z,5.84
2023-02-11T19:30:28.154Z,5.70
2023-02-11T19:32:59.728Z,5.78
2023-02-11T19:35:34.518Z,5.46
2023-02-11T19:38:06.188Z,5.45
2023-02-11T19:40:37.727Z,5.61
2023-02-11T19:43:09.265Z,5.68
2023-02-11T19:45:40.826Z,5.57
2023-02-11T19:48:12.820Z,5.49
2023-02-11T19:50:44.481Z,4.83
2023-02-11T19:53:16.123Z,4.71
2023-02-11T19:55:48.822Z,4.82
2023-02-11T19:58:20.467Z,4.94
2023-02-11T20:00:52.056Z,4.72
2023-02-11T20:03:23.622Z,4.87
2023-02-11T20:05:55.264Z,4.87
2023-02-11T20:08:26.800Z,5.07
2023-02-11T20:11:04.990Z,5.21
2023-02-11T20:13:37.928Z,4.94
2023-02-11T20:16:12.954Z,4.92
2023-02-11T20:18:45.793Z,5.19
2023-02-11T20:21:20.968Z,5.28
2023-02-11T20:23:53.536Z,4.98
2023-02-11T20:26:31.725Z,4.97
2023-02-11T20:29:03.391Z,4.88
2023-02-11T20:31:35.122Z,5.16
2023-02-11T20:34:06.812Z,5.11
2023-02-11T20:36:38.481Z,5.16
2023-02-11T20:39:11.426Z,5.36
2023-02-11T20:41:43.042Z,5.34
2023-02-11T20:44:14.820Z,5.19
2023-02-11T20:46:46.527Z,5.37
2023-02-11T20:49:22.202Z,5.20
2023-02-11T20:51:54.444Z,5.15
2023-02-11T20:54:26.418Z,5.18
2023-02-11T20:56:58.025Z,5.26
2023-02-11T20:59:29.692Z,5.28
2023-02-11T21:02:01.347Z,5.32
2023-02-11T21:04:33.683Z,5.21
2023-02-11T21:07:05.365Z,5.03
2023-02-11T21:09:36.912Z,5.32
2023-02-11T21:12:08.491Z,5.23
2023-02-11T21:14:40.077Z,5.21
2023-02-11T21:17:12.135Z,5.35
2023-02-11T21:19:44.008Z,5.15
2023-02-11T21:22:15.647Z,5.02
2023-02-11T21:24:47.377Z,4.68
2023-02-11T21:27:18.990Z,4.89
2023-02-11T21:29:54.576Z,5.08
2023-02-11T21:32:26.648Z,5.18
2023-02-11T21:35:00.546Z,4.97
2023-02-11T21:37:33.558Z,4.61
2023-02-11T21:40:05.781Z,4.55
2023-02-11T21:42:37.366Z,4.37
2023-02-11T21:45:09.345Z,4.31
2023-02-11T21:47:40.979Z,4.61
2023-02-11T21:50:12.577Z,4.88
2023-02-11T21:52:44.222Z,5.11
2023-02-11T21:55:16.076Z,5.28
2023-02-11T21:57:47.673Z,5.40
2023-02-11T22:00:19.587Z,5.39
2023-02-11T22:02:51.338Z,5.53
2023-02-11T22:05:23.451Z,5.49
2023-02-11T22:07:55.673Z,5.43
2023-02-11T22:10:27.438Z,4.90
2023-02-11T22:12:59.132Z,5.38
2023-02-11T22:15:30.864Z,5.75
2023-02-11T22:18:02.459Z,5.48
2023-02-11T22:20:34.114Z,5.60
2023-02-11T22:23:05.791Z,5.61
2023-02-11T22:25:37.352Z,5.55
2023-02-11T22:28:08.966Z,5.35
2023-02-11T22:30:40.646Z,5.53
2023-02-11T22:33:12.261Z,4.96
2023-02-11T22:35:43.924Z,5.05
2023-02-11T22:38:15.566Z,5.24
2023-02-11T22:40:47.193Z,5.35
2023-02-11T22:43:18.856Z,5.55
2023-02-11T22:45:50.914Z,5.51
2023-02-11T22:48:23.239Z,5.27
2023-02-11T22:50:54.993Z,4.93
2023-02-11T22:53:26.558Z,4.53
2023-02-11T22:56:05.313Z,3.88
2023-02-11T22:58:37.213Z,4.11
2023-02-11T23:01:08.825Z,3.79
2023-02-11T23:03:40.646Z,3.66
2023-02-11T23:06:13.197Z,3.69
2023-02-11T23:08:45.666Z,3.86
2023-02-11T23:11:21.293Z,3.89
2023-02-11T23:13:53.904Z,3.66
2023-02-11T23:16:30.205Z,3.82
2023-02-11T23:19:06.476Z,4.16
2023-02-11T23:21:39.056Z,4.49
2023-02-11T23:24:14.807Z,4.79
2023-02-11T23:26:46.387Z,4.93
2023-02-11T23:29:17.954Z,4.91
2023-02-11T23:31:49.918Z,4.99
2023-02-11T23:34:21.618Z,5.22
2023-02-11T23:36:53.315Z,5.25
2023-02-11T23:39:25.244Z,5.23
2023-02-11T23:41:56.816Z,5.31
2023-02-11T23:44:28.476Z,5.19
2023-02-11T23:47:00.115Z,5.43
2023-02-11T23:49:31.754Z,5.51
2023-02-11T23:52:03.845Z,5.15
2023-02-11T23:54:35.474Z,5.09
2023-02-11T23:57:07.031Z,5.26
2023-02-11T23:59:38.689Z,5.23
